Pagina principală
METAR-TAF:

METAR-TAF

Aeroporturi :

David, Panama

Latitudine: 08-24N, longitudine: 082-25W, elevație: 29 m

Observații meteo curente

Raportul a fost făcut în urmă cu 21 de minute, la 15:00 UTC
Vânt 3 kt de la Est
Temperatură 30°C
Umiditate 55%
Presiune 1013 hPa
Vizibilitate de 10 km sau mai mult
Nori puțini la o înălțime de 2000 picior

METAR: MPDA 241500Z 09003KT 9999 FEW020 30/20 Q1013

Ora: 10:21 (15:21 UTC)

Prognoză

Raportul a fost făcut în urmă cu 4 ore și 21 de minute, la 11:00 UTC
Prognoză valabilă de la 24 ora 12 UTC la 24 ora 24 UTC
Vânt 8 kt de la Nord-est
Vizibilitate de 10 km sau mai mult
Nori împrăștiați la o înălțime de 1800 picior
Temporar
de la 24 ora 16 UTC la 24 ora 20 UTC
Vânt 10 kt de la Sud
Nori împrăștiați la o înălțime de 2000 picior
Nori împrăștiați la o înălțime de 8000 picior

TAF: MPDA 241100Z 2412/2424 04008KT 9999 SCT018 TEMPO 2416/2420 18010KT SCT020 SCT080

Observații și prognoze meteo pentru peste 4.000 de aeroporturi (rapoarte METAR și TAF).

Stațiile disponibile sunt reprezentate pe hartă prin puncte galbene și roșii.

Țineți indicatorul mouse-ului pe punctul dorit pentru a vedea denumirea stației.

Apoi, faceți clic pentru a vedea observațiile și prognozele meteorologice.

Pentru a schimba harta: Pentru mărire, faceți clic pe butoanele verzi cu cruce neagră; pentru micșorare, pe butonul verde cu o liniuță; pentru hărți învecinate, pe săgețile verzi.


METAR-TAF: